Time;durP1;ratioP1;P1;durP2;ratioP2;P2;SDS_P1;SDS_P2;PMS_P1;PMS_P2;Temp;Humidity;BMP_temperature;BMP_pressure;BME280_temperature;BME280_humidity;BME280_pressure;Samples;Min_cycle;Max_cycle;Signal;HPM_P1;HPM_P2
2023/07/04 00:01:14;;;;;;;12.75;6.75;;;21.90;97.30;;;;;;4973356;28;20570;-91
2023/07/04 00:03:41;;;;;;;10.07;7.05;;;21.90;96.70;;;;;;4990882;28;20149;-91
2023/07/04 00:06:12;;;;;;;11.63;6.35;;;21.90;96.30;;;;;;4990777;28;20037;-90
2023/07/04 00:08:38;;;;;;;9.95;6.28;;;21.90;96.00;;;;;;4973476;28;20401;-91
2023/07/04 00:11:06;;;;;;;11.93;6.57;;;22.00;95.60;;;;;;4973752;28;20030;-92
2023/07/04 00:13:33;;;;;;;12.13;6.55;;;22.00;95.40;;;;;;4974122;28;20030;-91
2023/07/04 00:15:59;;;;;;;10.30;6.70;;;22.00;95.30;;;;;;4981709;28;20033;-90
2023/07/04 00:18:27;;;;;;;11.27;7.00;;;22.00;95.00;;;;;;4995045;28;20037;-91
2023/07/04 00:20:55;;;;;;;11.38;6.68;;;22.10;95.30;;;;;;4997197;28;20074;-92
2023/07/04 00:23:21;;;;;;;11.32;6.25;;;22.10;95.40;;;;;;4990457;28;20030;-91
2023/07/04 00:25:47;;;;;;;10.45;6.38;;;22.10;95.30;;;;;;4990299;28;20062;-92
2023/07/04 00:28:13;;;;;;;15.32;6.63;;;22.00;95.00;;;;;;4990404;28;20034;-90
2023/07/04 00:30:39;;;;;;;10.80;7.10;;;22.10;94.40;;;;;;4991406;28;20026;-91
2023/07/04 00:33:04;;;;;;;9.77;5.95;;;22.10;94.10;;;;;;4990346;28;20478;-91
2023/07/04 00:35:30;;;;;;;10.75;6.25;;;22.20;93.00;;;;;;4990145;28;20101;-92
2023/07/04 00:37:56;;;;;;;10.48;6.78;;;22.30;92.20;;;;;;4990029;28;20042;-90
2023/07/04 00:40:23;;;;;;;14.40;7.57;;;22.40;91.10;;;;;;4990224;28;20112;-91
2023/07/04 00:42:52;;;;;;;10.65;6.32;;;22.50;90.60;;;;;;4974191;28;20371;-91
2023/07/04 00:45:22;;;;;;;11.73;6.85;;;22.50;90.30;;;;;;4991178;28;20022;-91
2023/07/04 00:47:56;;;;;;;11.13;6.65;;;22.50;90.30;;;;;;4976822;28;20056;-91
2023/07/04 00:50:31;;;;;;;10.70;6.88;;;22.60;90.10;;;;;;4976137;28;20030;-91
2023/07/04 00:53:02;;;;;;;10.10;6.13;;;22.60;90.60;;;;;;4976404;28;20065;-90
2023/07/04 00:55:29;;;;;;;10.25;6.15;;;22.50;92.20;;;;;;4993299;28;20085;-91
2023/07/04 00:57:55;;;;;;;10.25;6.45;;;22.40;93.10;;;;;;4993090;28;20030;-90
2023/07/04 01:00:23;;;;;;;25.90;7.10;;;22.40;93.50;;;;;;4993443;28;20114;-90
2023/07/04 01:02:58;;;;;;;12.38;6.82;;;22.30;93.70;;;;;;4993572;28;20022;-90
2023/07/04 01:05:39;;;;;;;9.93;6.40;;;22.20;94.10;;;;;;4976156;28;20037;-92
2023/07/04 01:08:13;;;;;;;12.10;6.65;;;22.10;94.60;;;;;;4993229;28;20348;-90
2023/07/04 01:10:42;;;;;;;11.48;6.78;;;22.10;95.50;;;;;;4993519;28;20102;-90
2023/07/04 01:13:37;;;;;;;11.88;7.03;;;21.90;97.40;;;;;;4975895;28;20049;-91
2023/07/04 01:16:11;;;;;;;12.05;7.15;;;21.80;99.90;;;;;;4993111;28;20023;-91
2023/07/04 01:18:39;;;;;;;11.55;6.80;;;21.70;99.90;;;;;;4975408;28;20068;-92
2023/07/04 01:21:07;;;;;;;11.02;7.70;;;21.60;99.90;;;;;;4993097;28;20041;-92
2023/07/04 01:23:38;;;;;;;14.00;7.03;;;21.50;99.90;;;;;;4993149;28;20030;-92
2023/07/04 01:26:16;;;;;;;10.38;6.65;;;21.50;99.90;;;;;;4994309;28;20023;-91
2023/07/04 01:28:42;;;;;;;11.90;6.90;;;21.30;99.90;;;;;;4978360;28;20060;-91
2023/07/04 01:31:09;;;;;;;12.60;8.52;;;21.30;99.90;;;;;;4994832;28;20035;-90
2023/07/04 01:33:34;;;;;;;12.43;7.13;;;21.30;99.90;;;;;;4977722;28;20030;-91
2023/07/04 01:36:00;;;;;;;15.65;7.53;;;21.20;99.90;;;;;;4977915;28;20402;-90
2023/07/04 01:38:30;;;;;;;14.90;7.57;;;21.10;99.90;;;;;;5005785;28;20043;-91
2023/07/04 01:40:56;;;;;;;17.58;8.40;;;21.00;99.90;;;;;;5016031;28;20066;-90
2023/07/04 01:43:22;;;;;;;12.18;7.80;;;20.90;99.90;;;;;;4995094;28;20053;-91
2023/07/04 01:45:47;;;;;;;16.52;8.85;;;20.80;99.90;;;;;;4980210;28;20022;-91
2023/07/04 01:48:13;;;;;;;15.73;9.27;;;20.80;99.90;;;;;;4997366;28;20026;-91
2023/07/04 01:50:39;;;;;;;18.90;9.60;;;20.70;99.90;;;;;;4993193;28;20028;-91
2023/07/04 01:53:05;;;;;;;12.07;7.97;;;20.60;99.90;;;;;;4992196;28;20086;-92
2023/07/04 01:55:30;;;;;;;16.67;8.65;;;20.50;99.90;;;;;;4994434;28;20025;-92
2023/07/04 01:57:57;;;;;;;14.45;8.38;;;20.40;99.90;;;;;;4976311;28;20046;-92
2023/07/04 02:00:23;;;;;;;22.60;9.88;;;20.30;99.90;;;;;;4992510;28;20047;-93
2023/07/04 02:02:49;;;;;;;19.55;10.48;;;20.30;99.90;;;;;;4975902;28;20057;-94
2023/07/04 02:05:19;;;;;;;18.50;10.00;;;20.20;99.90;;;;;;4992241;28;20375;-91
2023/07/04 02:07:45;;;;;;;15.80;9.75;;;20.10;99.90;;;;;;4979201;28;20015;-91
2023/07/04 02:10:11;;;;;;;15.55;9.85;;;20.10;99.90;;;;;;4984241;28;20049;-91
2023/07/04 02:12:37;;;;;;;19.90;10.15;;;20.00;99.90;;;;;;4975379;28;20022;-93
2023/07/04 02:15:03;;;;;;;17.23;9.63;;;19.90;99.90;;;;;;4993336;28;20034;-93
2023/07/04 02:17:28;;;;;;;22.30;10.52;;;19.90;99.90;;;;;;4992031;28;20034;-93
2023/07/04 02:19:54;;;;;;;12.52;8.90;;;19.80;99.90;;;;;;4992162;28;20046;-92
2023/07/04 02:22:21;;;;;;;13.77;8.45;;;19.80;99.90;;;;;;4991782;28;20030;-93
2023/07/04 02:24:47;;;;;;;18.50;10.05;;;19.80;99.90;;;;;;4992346;28;20028;-92
2023/07/04 02:27:13;;;;;;;16.30;9.13;;;19.80;99.90;;;;;;4996108;28;20093;-92
2023/07/04 02:29:38;;;;;;;20.23;8.70;;;19.80;99.90;;;;;;5006547;28;20041;-93
2023/07/04 02:32:04;;;;;;;12.20;8.23;;;19.80;99.90;;;;;;4994576;28;20042;-92
2023/07/04 02:34:30;;;;;;;14.50;9.32;;;19.80;99.90;;;;;;4974687;28;20033;-92
2023/07/04 02:36:55;;;;;;;15.70;8.93;;;19.80;99.90;;;;;;4974634;28;20445;-93
2023/07/04 02:39:21;;;;;;;14.55;8.30;;;19.80;99.90;;;;;;4975410;28;20042;-91
2023/07/04 02:41:47;;;;;;;15.40;8.25;;;19.80;99.90;;;;;;4977445;28;20031;-93
2023/07/04 02:44:12;;;;;;;11.40;7.15;;;19.70;99.90;;;;;;4974460;28;20027;-93
2023/07/04 02:46:38;;;;;;;13.90;8.27;;;19.80;99.90;;;;;;4991930;28;20521;-93
2023/07/04 02:49:05;;;;;;;14.88;7.80;;;19.80;99.90;;;;;;4974756;28;20030;-93
2023/07/04 02:51:32;;;;;;;14.85;7.97;;;19.80;99.90;;;;;;4974201;28;20034;-92
2023/07/04 02:53:58;;;;;;;13.88;7.60;;;19.80;99.90;;;;;;4974456;28;20022;-92
2023/07/04 02:56:24;;;;;;;11.73;6.75;;;19.80;99.90;;;;;;4991809;28;20469;-93
2023/07/04 02:58:49;;;;;;;9.88;7.13;;;19.80;99.90;;;;;;4991764;28;20453;-92
2023/07/04 03:01:15;;;;;;;20.67;7.78;;;19.80;99.90;;;;;;4974686;28;20025;-92
2023/07/04 03:03:40;;;;;;;11.45;7.53;;;19.80;99.90;;;;;;4974450;28;20125;-93
2023/07/04 03:06:06;;;;;;;11.90;7.70;;;19.80;99.90;;;;;;4991738;28;20057;-92
2023/07/04 03:08:32;;;;;;;15.07;8.32;;;19.80;99.90;;;;;;4974226;28;20035;-93
2023/07/04 03:10:58;;;;;;;10.95;7.25;;;19.80;99.90;;;;;;4974009;28;20023;-93
2023/07/04 03:13:23;;;;;;;17.50;7.90;;;19.80;99.90;;;;;;4991728;28;20069;-93
2023/07/04 03:15:49;;;;;;;13.98;7.70;;;19.80;99.90;;;;;;4991588;28;20041;-93
2023/07/04 03:18:15;;;;;;;11.65;7.32;;;19.90;99.90;;;;;;4991199;28;20045;-93
2023/07/04 03:20:40;;;;;;;12.70;7.82;;;19.90;99.90;;;;;;4991279;28;20090;-92
2023/07/04 03:23:06;;;;;;;12.00;6.60;;;20.00;99.90;;;;;;4973956;28;20078;-92
2023/07/04 03:25:32;;;;;;;16.38;7.40;;;20.00;99.90;;;;;;4991492;28;20079;-92
2023/07/04 03:27:57;;;;;;;13.32;7.15;;;20.00;99.90;;;;;;4991006;28;20038;-92
2023/07/04 03:30:23;;;;;;;16.75;7.70;;;20.00;99.90;;;;;;4974087;28;20122;-94
2023/07/04 03:32:49;;;;;;;12.73;8.60;;;20.00;99.90;;;;;;4973682;28;20076;-93
2023/07/04 03:35:14;;;;;;;13.70;7.38;;;19.90;99.90;;;;;;4991259;28;20027;-93
2023/07/04 03:37:40;;;;;;;11.68;6.93;;;19.90;99.90;;;;;;4973572;28;20802;-93
2023/07/04 03:40:09;;;;;;;11.23;6.88;;;19.90;99.90;;;;;;4991013;28;20057;-92
2023/07/04 03:42:36;;;;;;;10.23;6.78;;;19.90;99.90;;;;;;4991210;28;20457;-91
2023/07/04 03:45:02;;;;;;;9.55;6.15;;;19.90;99.90;;;;;;4973900;28;20030;-92
2023/07/04 03:47:28;;;;;;;10.60;6.75;;;20.00;99.90;;;;;;4974496;28;20026;-92
2023/07/04 03:49:54;;;;;;;11.48;6.82;;;20.00;99.90;;;;;;4973706;28;20026;-90
2023/07/04 03:52:20;;;;;;;10.77;7.47;;;20.00;99.90;;;;;;4973727;28;20042;-91
2023/07/04 03:54:46;;;;;;;11.02;6.85;;;20.00;99.90;;;;;;4974021;28;20117;-91
2023/07/04 03:57:11;;;;;;;10.52;7.35;;;19.90;99.90;;;;;;4990983;28;20026;-92
2023/07/04 03:59:37;;;;;;;12.48;7.40;;;19.90;99.90;;;;;;4990369;28;20034;-93
2023/07/04 04:02:03;;;;;;;12.70;7.97;;;19.90;99.90;;;;;;4989975;28;20022;-92
2023/07/04 04:04:28;;;;;;;18.63;7.72;;;19.90;99.90;;;;;;4991345;28;20030;-91
2023/07/04 04:06:56;;;;;;;11.07;7.18;;;19.90;99.90;;;;;;4997391;28;20034;-92
2023/07/04 04:09:25;;;;;;;11.23;7.78;;;20.00;99.90;;;;;;4973599;28;20094;-92
2023/07/04 04:11:51;;;;;;;9.98;7.22;;;20.00;99.90;;;;;;4987893;28;20034;-91
2023/07/04 04:14:17;;;;;;;12.65;6.78;;;20.00;99.90;;;;;;4990678;28;20031;-89
2023/07/04 04:16:43;;;;;;;12.25;6.95;;;20.10;99.90;;;;;;4991089;28;20105;-90
2023/07/04 04:19:08;;;;;;;11.00;6.82;;;20.20;99.90;;;;;;4990721;28;20069;-91
2023/07/04 04:21:34;;;;;;;11.25;7.20;;;20.20;99.90;;;;;;4976164;28;20058;-92
2023/07/04 04:23:59;;;;;;;10.10;6.90;;;20.30;99.90;;;;;;4979814;28;20037;-89
2023/07/04 04:26:25;;;;;;;12.85;6.70;;;20.30;99.90;;;;;;4993916;28;20069;-91
2023/07/04 04:28:53;;;;;;;10.60;7.25;;;20.30;99.90;;;;;;4976218;28;20034;-90
2023/07/04 04:31:18;;;;;;;11.38;6.38;;;20.30;99.90;;;;;;4975916;28;20113;-90
2023/07/04 04:33:44;;;;;;;10.75;6.75;;;20.30;99.90;;;;;;4975676;28;20098;-91
2023/07/04 04:36:10;;;;;;;10.77;6.70;;;20.30;99.90;;;;;;5000051;28;20034;-88
2023/07/04 04:38:38;;;;;;;12.45;6.45;;;20.20;99.90;;;;;;4993640;28;20573;-90
2023/07/04 04:41:08;;;;;;;9.65;6.13;;;20.30;99.90;;;;;;4992995;28;20500;-86
2023/07/04 04:43:33;;;;;;;10.63;7.05;;;20.40;99.90;;;;;;4981539;28;20145;-88
2023/07/04 04:46:03;;;;;;;10.63;7.18;;;20.40;99.90;;;;;;4978569;28;20062;-88
2023/07/04 04:48:36;;;;;;;13.20;7.55;;;20.30;99.90;;;;;;4992356;28;20030;-88
2023/07/04 04:51:10;;;;;;;19.05;7.80;;;20.20;99.90;;;;;;4976575;28;20031;-87
2023/07/04 04:53:37;;;;;;;14.48;8.50;;;20.20;99.90;;;;;;4993668;28;20033;-89
2023/07/04 04:56:03;;;;;;;11.98;8.30;;;20.10;99.90;;;;;;4977469;28;20030;-88
2023/07/04 04:58:29;;;;;;;13.98;8.38;;;20.10;99.90;;;;;;4976383;28;20038;-88
2023/07/04 05:00:55;;;;;;;19.15;8.55;;;20.10;99.90;;;;;;4977918;28;20049;-88
2023/07/04 05:03:21;;;;;;;15.40;9.07;;;20.10;99.90;;;;;;4977920;28;20030;-89
2023/07/04 05:05:46;;;;;;;16.15;8.80;;;20.10;99.90;;;;;;4977251;28;20522;-90
2023/07/04 05:08:13;;;;;;;17.10;8.80;;;20.10;99.90;;;;;;4978434;28;20026;-89
2023/07/04 05:10:38;;;;;;;15.77;8.65;;;20.10;99.90;;;;;;4986317;28;20025;-89
2023/07/04 05:13:04;;;;;;;15.70;8.25;;;20.20;99.90;;;;;;4999676;28;20018;-90
2023/07/04 05:15:30;;;;;;;14.13;8.02;;;20.20;99.90;;;;;;5015737;28;20045;-90
2023/07/04 05:17:56;;;;;;;14.38;9.25;;;20.20;99.90;;;;;;5013824;28;20057;-90
2023/07/04 05:20:23;;;;;;;19.05;8.80;;;20.20;99.90;;;;;;4991043;28;20092;-89
2023/07/04 05:22:56;;;;;;;15.55;7.63;;;20.30;99.90;;;;;;4975792;28;20031;-88
2023/07/04 05:25:22;;;;;;;11.48;6.68;;;20.40;99.90;;;;;;4975409;28;20029;-90
2023/07/04 05:27:50;;;;;;;9.38;6.53;;;20.50;99.90;;;;;;4976116;28;20110;-89
2023/07/04 05:30:16;;;;;;;11.38;7.18;;;20.70;99.90;;;;;;4975734;28;20023;-90
2023/07/04 05:32:41;;;;;;;13.00;7.47;;;20.80;99.90;;;;;;4992899;28;20042;-89
2023/07/04 05:35:07;;;;;;;10.07;6.32;;;21.00;99.90;;;;;;4975882;28;20037;-89
2023/07/04 05:37:33;;;;;;;13.35;7.78;;;21.10;99.90;;;;;;4992484;28;20081;-90
2023/07/04 05:39:59;;;;;;;11.77;7.65;;;21.20;99.90;;;;;;4975967;28;20031;-90
2023/07/04 05:42:25;;;;;;;12.35;7.90;;;21.30;99.90;;;;;;4975728;28;20492;-90
2023/07/04 05:44:51;;;;;;;15.95;7.82;;;21.30;99.90;;;;;;4975800;28;20031;-90
2023/07/04 05:47:16;;;;;;;11.75;7.13;;;21.30;99.90;;;;;;4975487;28;20030;-90
2023/07/04 05:49:42;;;;;;;11.30;7.07;;;21.30;99.90;;;;;;4975400;28;20035;-90
2023/07/04 05:52:08;;;;;;;11.30;7.70;;;21.20;99.90;;;;;;4992952;28;20535;-88
2023/07/04 05:54:34;;;;;;;12.77;6.80;;;21.20;99.90;;;;;;4975558;28;20026;-90
2023/07/04 05:56:59;;;;;;;12.82;7.72;;;21.20;99.90;;;;;;4975394;28;20037;-89
2023/07/04 05:59:25;;;;;;;10.77;6.72;;;21.20;99.90;;;;;;4992469;28;20043;-93
2023/07/04 06:01:51;;;;;;;12.48;7.43;;;21.20;99.90;;;;;;4975618;28;20029;-91
2023/07/04 06:04:17;;;;;;;10.98;7.35;;;21.30;99.90;;;;;;4974261;28;20475;-92
2023/07/04 06:06:50;;;;;;;8.68;6.40;;;21.30;99.90;;;;;;4975064;28;20029;-92
2023/07/04 06:09:17;;;;;;;10.75;6.82;;;21.40;99.90;;;;;;4975301;28;20471;-91
2023/07/04 06:11:45;;;;;;;9.48;6.85;;;21.30;99.90;;;;;;4994815;28;20050;-92
2023/07/04 06:14:15;;;;;;;10.80;6.72;;;21.30;99.90;;;;;;4975033;28;20064;-90
2023/07/04 06:16:41;;;;;;;10.70;6.93;;;21.40;99.90;;;;;;4992227;28;20033;-93
2023/07/04 06:19:07;;;;;;;10.65;6.57;;;21.50;99.90;;;;;;4992000;28;20042;-93
2023/07/04 06:21:32;;;;;;;13.27;7.70;;;21.70;99.90;;;;;;4975245;28;20462;-91
2023/07/04 06:23:58;;;;;;;11.38;6.90;;;21.80;99.90;;;;;;4974999;28;20118;-93
2023/07/04 06:26:27;;;;;;;11.43;6.57;;;21.90;99.90;;;;;;4991978;28;20120;-92
2023/07/04 06:28:54;;;;;;;9.80;6.57;;;21.90;99.90;;;;;;4991309;28;20022;-92
2023/07/04 06:31:20;;;;;;;11.98;7.00;;;22.00;99.90;;;;;;4992134;28;20034;-93
2023/07/04 06:33:46;;;;;;;10.43;6.35;;;21.90;99.90;;;;;;4992218;28;20113;-91
2023/07/04 06:36:14;;;;;;;10.27;6.38;;;22.00;99.90;;;;;;4974723;28;20042;-93
2023/07/04 06:38:40;;;;;;;9.05;6.22;;;21.90;99.90;;;;;;4974750;28;20054;-92
2023/07/04 06:41:08;;;;;;;11.82;6.43;;;21.90;99.90;;;;;;4974454;28;20034;-94
2023/07/04 06:43:34;;;;;;;7.72;5.60;;;21.80;99.90;;;;;;4996260;28;20027;-93
2023/07/04 06:46:01;;;;;;;10.45;6.72;;;21.80;99.90;;;;;;4992430;28;20097;-91
2023/07/04 06:48:28;;;;;;;10.82;5.85;;;21.80;99.90;;;;;;4974770;28;20483;-93
2023/07/04 06:50:58;;;;;;;9.70;6.72;;;21.80;99.90;;;;;;4974257;28;20037;-92
2023/07/04 06:53:24;;;;;;;9.00;5.97;;;21.80;99.90;;;;;;4991666;28;20026;-91
2023/07/04 06:55:49;;;;;;;10.25;5.95;;;21.80;99.90;;;;;;5007333;28;20026;-91
2023/07/04 06:58:15;;;;;;;10.10;6.63;;;21.80;99.90;;;;;;4983269;28;20056;-91
2023/07/04 07:00:41;;;;;;;9.68;6.47;;;21.80;99.90;;;;;;4991915;28;20075;-92
2023/07/04 07:03:07;;;;;;;8.57;5.93;;;21.80;99.90;;;;;;4991907;28;20030;-92
2023/07/04 07:05:41;;;;;;;10.88;6.35;;;21.80;99.90;;;;;;4974474;28;20109;-94
2023/07/04 07:08:06;;;;;;;9.68;6.05;;;21.80;99.90;;;;;;4991533;28;20025;-92
2023/07/04 07:10:36;;;;;;;11.30;6.95;;;21.80;99.90;;;;;;4974322;28;20031;-90
2023/07/04 07:13:03;;;;;;;11.35;6.55;;;21.90;99.90;;;;;;4974480;28;20034;-92
2023/07/04 07:15:28;;;;;;;10.40;6.15;;;21.90;99.90;;;;;;4991254;28;20030;-91
2023/07/04 07:17:54;;;;;;;10.57;6.13;;;22.00;99.90;;;;;;4974237;28;20034;-93
2023/07/04 07:20:20;;;;;;;7.85;6.35;;;21.90;99.90;;;;;;4974454;28;20034;-92
2023/07/04 07:22:46;;;;;;;10.27;6.93;;;22.00;99.90;;;;;;4974091;28;20040;-93
2023/07/04 07:25:11;;;;;;;9.45;6.85;;;22.00;99.90;;;;;;4973630;28;20041;-93
2023/07/04 07:27:37;;;;;;;10.52;7.22;;;21.90;99.90;;;;;;4973727;28;20109;-93
2023/07/04 07:30:03;;;;;;;12.48;6.97;;;21.90;99.90;;;;;;4974111;28;20084;-92
2023/07/04 07:32:29;;;;;;;13.95;6.70;;;22.00;99.90;;;;;;4973795;28;20443;-92
2023/07/04 07:34:54;;;;;;;14.57;7.38;;;22.00;99.90;;;;;;4973908;28;20068;-92
2023/07/04 07:37:20;;;;;;;9.90;6.30;;;22.10;99.90;;;;;;4967143;28;20051;-93
2023/07/04 07:39:46;;;;;;;9.40;6.35;;;22.10;99.90;;;;;;4951340;28;20039;-93
2023/07/04 07:42:12;;;;;;;9.40;5.60;;;22.30;99.90;;;;;;4952003;28;20472;-93
2023/07/04 07:44:38;;;;;;;8.10;5.82;;;22.30;99.90;;;;;;4951408;28;20031;-93
2023/07/04 07:47:04;;;;;;;7.32;5.57;;;22.50;99.90;;;;;;4951662;28;20057;-92
2023/07/04 07:49:30;;;;;;;11.15;5.97;;;22.50;99.90;;;;;;4950983;28;20126;-92
2023/07/04 07:51:57;;;;;;;9.15;5.25;;;22.60;99.90;;;;;;4951337;28;20143;-93
2023/07/04 07:54:23;;;;;;;9.95;5.20;;;22.60;99.90;;;;;;4951860;28;20031;-93
2023/07/04 07:56:48;;;;;;;8.25;5.18;;;22.70;99.90;;;;;;4959802;28;20106;-93
2023/07/04 07:59:14;;;;;;;10.50;6.60;;;22.60;99.90;;;;;;4954383;28;20031;-93
2023/07/04 08:01:40;;;;;;;8.63;4.55;;;22.70;99.90;;;;;;4957276;28;20543;-93
2023/07/04 08:04:06;;;;;;;7.35;4.78;;;22.70;99.90;;;;;;4954620;28;20037;-93
2023/07/04 08:06:39;;;;;;;8.70;5.53;;;22.70;99.90;;;;;;4954753;28;20027;-95
2023/07/04 08:09:08;;;;;;;11.10;5.60;;;22.80;99.90;;;;;;4954746;29;20031;-94
2023/07/04 08:11:34;;;;;;;8.75;5.45;;;22.80;99.90;;;;;;4954583;28;20026;-94
2023/07/04 08:14:00;;;;;;;9.90;5.80;;;22.80;99.90;;;;;;4954281;28;20126;-94
2023/07/04 08:16:58;;;;;;;8.07;5.32;;;22.70;99.90;;;;;;4964356;29;20149;-95
2023/07/04 08:19:24;;;;;;;7.70;5.00;;;22.80;99.90;;;;;;4971223;28;20039;-95
2023/07/04 08:21:51;;;;;;;7.18;4.97;;;22.90;99.90;;;;;;4962354;28;20555;-95
2023/07/04 08:24:17;;;;;;;8.90;5.25;;;23.00;99.90;;;;;;4967432;28;20392;-95
2023/07/04 08:26:44;;;;;;;9.80;5.07;;;23.20;99.90;;;;;;4962065;28;20026;-92
2023/07/04 08:29:11;;;;;;;8.50;5.55;;;23.40;99.90;;;;;;4962776;28;20031;-94
2023/07/04 08:31:36;;;;;;;7.00;5.05;;;23.50;99.90;;;;;;4966043;28;20052;-90
2023/07/04 08:34:04;;;;;;;9.00;5.55;;;23.70;99.90;;;;;;4963133;28;20035;-94
2023/07/04 08:36:30;;;;;;;10.23;6.43;;;23.80;99.90;;;;;;4968997;28;20027;-93
2023/07/04 08:38:56;;;;;;;9.15;5.25;;;23.90;99.90;;;;;;4972621;28;20138;-93
2023/07/04 08:41:22;;;;;;;7.72;5.00;;;24.10;99.90;;;;;;4967490;28;20039;-91
2023/07/04 08:43:50;;;;;;;7.10;4.75;;;24.10;99.90;;;;;;4977419;28;20031;-92
2023/07/04 08:46:19;;;;;;;7.22;4.82;;;24.20;99.90;;;;;;4972112;28;20035;-91
2023/07/04 08:48:45;;;;;;;8.23;5.28;;;24.30;99.90;;;;;;4960830;28;20036;-92
2023/07/04 08:51:30;;;;;;;8.38;4.97;;;24.30;99.90;;;;;;4958651;28;20118;-94
2023/07/04 08:54:00;;;;;;;6.68;4.60;;;24.30;99.90;;;;;;4960593;28;20062;-95
2023/07/04 08:56:34;;;;;;;8.02;5.05;;;24.40;99.90;;;;;;4999937;28;20024;-92
2023/07/04 08:59:05;;;;;;;8.48;5.43;;;24.40;99.90;;;;;;4987547;28;20547;-92
2023/07/04 09:01:59;;;;;;;7.85;5.43;;;24.40;99.90;;;;;;4956349;28;20553;-93
2023/07/04 09:05:03;;;;;;;6.30;4.40;;;24.40;99.90;;;;;;4968139;28;20095;-94
2023/07/04 09:07:39;;;;;;;5.63;4.53;;;24.40;99.90;;;;;;4965505;28;20083;-93
2023/07/04 09:10:23;;;;;;;;;;;24.40;99.90;;;;;;4963916;28;20058;-92
2023/07/04 09:12:49;;;;;;;6.32;4.47;;;24.20;99.90;;;;;;4955113;28;19906;-94
2023/07/04 09:15:28;;;;;;;7.13;4.88;;;24.10;99.90;;;;;;4955926;28;20053;-92
2023/07/04 09:18:22;;;;;;;8.07;5.47;;;23.90;99.90;;;;;;4956644;28;20027;-94
2023/07/04 09:21:03;;;;;;;9.38;5.65;;;23.80;99.90;;;;;;4962413;28;20058;-94
2023/07/04 09:23:30;;;;;;;10.00;5.65;;;23.70;99.90;;;;;;4954648;29;20063;-93
2023/07/04 09:26:00;;;;;;;7.18;5.30;;;23.60;99.90;;;;;;4953652;28;20573;-93
2023/07/04 09:28:28;;;;;;;11.20;4.95;;;23.70;99.90;;;;;;4942752;28;20027;-91
2023/07/04 09:30:58;;;;;;;10.30;6.43;;;23.60;99.90;;;;;;4954917;28;20032;-94
2023/07/04 09:33:25;;;;;;;11.80;6.80;;;23.60;99.90;;;;;;4959587;28;20489;-94
2023/07/04 09:35:51;;;;;;;7.60;5.70;;;23.60;99.90;;;;;;4955703;28;20019;-93
2023/07/04 09:38:16;;;;;;;8.50;5.80;;;23.60;99.90;;;;;;4955684;28;20422;-94
2023/07/04 09:40:55;;;;;;;9.85;6.53;;;23.70;99.90;;;;;;4958543;29;20042;-95
2023/07/04 09:43:32;;;;;;;11.55;6.60;;;23.70;99.90;;;;;;4961632;28;20031;-94
2023/07/04 09:46:23;;;;;;;10.80;6.75;;;23.80;99.90;;;;;;4972299;28;20021;-95
2023/07/04 09:48:49;;;;;;;9.23;5.97;;;24.00;99.90;;;;;;4976162;28;20023;-93
2023/07/04 09:51:22;;;;;;;11.10;7.10;;;24.10;99.90;;;;;;4968849;28;20032;-94
2023/07/04 09:53:48;;;;;;;7.63;5.85;;;24.20;99.90;;;;;;4969659;28;20070;-94
2023/07/04 09:56:27;;;;;;;8.23;5.65;;;24.30;99.90;;;;;;4961216;28;20031;-95
2023/07/04 09:59:28;;;;;;;9.68;6.85;;;24.40;99.90;;;;;;4965299;28;20399;-95
2023/07/04 10:02:10;;;;;;;8.30;5.63;;;24.30;99.90;;;;;;5006196;28;20084;-95
2023/07/04 10:04:38;;;;;;;9.55;6.00;;;24.20;99.90;;;;;;4958756;28;20035;-95
2023/07/04 10:07:12;;;;;;;9.75;6.28;;;24.00;99.90;;;;;;4953378;28;20103;-94
2023/07/04 10:09:46;;;;;;;9.32;5.55;;;23.90;99.90;;;;;;4952999;29;20077;-93
2023/07/04 10:12:14;;;;;;;6.68;5.10;;;23.80;99.90;;;;;;4953693;28;20057;-92
2023/07/04 10:14:46;;;;;;;7.53;5.47;;;23.80;99.90;;;;;;4954282;28;20027;-94
2023/07/04 10:17:33;;;;;;;12.68;7.20;;;23.80;99.90;;;;;;4984752;28;20031;-95
2023/07/04 10:20:14;;;;;;;10.40;6.25;;;23.80;99.90;;;;;;4952363;28;20515;-94
2023/07/04 10:22:46;;;;;;;6.38;5.25;;;23.80;99.90;;;;;;4952990;28;20027;-94
2023/07/04 10:25:21;;;;;;;9.27;5.95;;;23.80;99.90;;;;;;4953479;28;20046;-93
2023/07/04 10:28:06;;;;;;;8.93;6.18;;;23.80;99.90;;;;;;4952524;28;20046;-92
2023/07/04 10:30:37;;;;;;;9.80;6.05;;;23.90;99.90;;;;;;4951769;29;20058;-93
2023/07/04 10:33:13;;;;;;;8.35;5.85;;;23.90;99.90;;;;;;4951734;28;20039;-93
2023/07/04 10:35:42;;;;;;;9.68;5.95;;;23.90;99.90;;;;;;4952479;28;20027;-91
2023/07/04 10:38:27;;;;;;;10.10;6.10;;;23.90;99.90;;;;;;4951506;28;20130;-92
2023/07/04 10:40:54;;;;;;;8.88;6.30;;;23.90;99.90;;;;;;4955775;28;20035;-92
2023/07/04 10:43:30;;;;;;;13.35;6.90;;;23.80;99.90;;;;;;4959153;28;20063;-92
2023/07/04 10:46:00;;;;;;;9.77;6.07;;;23.80;99.90;;;;;;4949477;28;20061;-92
2023/07/04 10:48:31;;;;;;;10.73;6.60;;;23.80;99.90;;;;;;4952845;28;20023;-91
2023/07/04 10:51:33;;;;;;;10.13;6.30;;;23.80;99.90;;;;;;4952214;29;20027;-94
2023/07/04 10:53:59;;;;;;;10.27;7.07;;;23.70;99.90;;;;;;4958744;28;20058;-91
2023/07/04 10:56:32;;;;;;;10.27;6.57;;;23.70;99.90;;;;;;4951964;28;20480;-93
2023/07/04 10:59:14;;;;;;;8.73;6.07;;;23.70;99.90;;;;;;4952789;28;20097;-91
2023/07/04 11:01:44;;;;;;;12.07;7.25;;;23.60;99.90;;;;;;4956485;28;20024;-92
2023/07/04 11:04:18;;;;;;;8.90;6.10;;;23.60;99.90;;;;;;4951786;28;20484;-93
2023/07/04 11:06:54;;;;;;;9.35;6.68;;;23.60;99.90;;;;;;4951857;28;20122;-93
2023/07/04 11:09:20;;;;;;;10.43;6.43;;;23.60;99.90;;;;;;4952184;28;20034;-92
2023/07/04 11:11:49;;;;;;;10.07;7.00;;;23.60;99.90;;;;;;4951842;29;20035;-92
2023/07/04 11:14:25;;;;;;;8.60;6.13;;;23.60;99.90;;;;;;4952025;29;20080;-92
2023/07/04 11:16:55;;;;;;;10.57;6.03;;;23.60;99.90;;;;;;4952969;28;20028;-93
2023/07/04 11:19:26;;;;;;;9.05;6.00;;;23.70;99.90;;;;;;4951571;28;20050;-94
2023/07/04 11:22:13;;;;;;;9.50;5.30;;;23.80;99.90;;;;;;4963112;28;20027;-93
2023/07/04 11:24:53;;;;;;;10.63;6.50;;;23.90;99.90;;;;;;4963177;28;20046;-94
2023/07/04 11:27:29;;;;;;;8.45;5.90;;;24.00;99.90;;;;;;4952023;28;20028;-93
2023/07/04 11:30:02;;;;;;;8.38;5.55;;;24.10;99.90;;;;;;4983375;28;20024;-93
2023/07/04 11:32:37;;;;;;;7.78;5.35;;;24.20;99.90;;;;;;4952671;28;20380;-94
2023/07/04 11:35:14;;;;;;;11.07;6.72;;;24.20;99.90;;;;;;4951279;28;20023;-93
2023/07/04 11:37:54;;;;;;;9.15;6.53;;;24.20;99.90;;;;;;4964806;28;20137;-92
2023/07/04 11:40:28;;;;;;;9.88;7.00;;;24.20;99.90;;;;;;4974527;28;20050;-93
2023/07/04 11:42:58;;;;;;;9.70;6.00;;;24.20;99.90;;;;;;4973599;28;20650;-92
2023/07/04 11:45:26;;;;;;;10.00;6.55;;;24.00;99.90;;;;;;4973945;28;20038;-93
2023/07/04 11:48:10;;;;;;;19.05;8.60;;;23.90;99.90;;;;;;4977167;28;20444;-93
2023/07/04 11:51:06;;;;;;;9.75;6.60;;;23.80;99.90;;;;;;4974176;28;20475;-95
2023/07/04 11:53:43;;;;;;;10.15;6.20;;;23.80;99.90;;;;;;4976980;28;20037;-93
2023/07/04 11:56:17;;;;;;;14.23;5.53;;;23.90;99.90;;;;;;4973779;28;20054;-92
2023/07/04 11:58:44;;;;;;;8.73;6.05;;;23.90;99.90;;;;;;4973726;28;20121;-92
2023/07/04 12:01:12;;;;;;;8.85;5.78;;;24.10;99.90;;;;;;4973738;28;20084;-93
2023/07/04 12:03:45;;;;;;;8.40;5.72;;;24.10;99.90;;;;;;4990886;28;20033;-94
2023/07/04 12:06:35;;;;;;;8.18;5.85;;;24.10;99.90;;;;;;4973088;28;20399;-92
2023/07/04 12:09:02;;;;;;;7.43;4.72;;;24.10;99.90;;;;;;5007543;28;20034;-93
2023/07/04 12:11:42;;;;;;;9.60;5.82;;;24.10;99.90;;;;;;4972378;28;20068;-92
2023/07/04 12:14:12;;;;;;;9.30;5.63;;;24.10;99.90;;;;;;4980380;28;20068;-92
2023/07/04 12:16:37;;;;;;;9.82;6.68;;;24.10;99.90;;;;;;4996781;28;20083;-91
2023/07/04 12:19:06;;;;;;;7.38;5.20;;;24.10;99.90;;;;;;5012969;28;20026;-93
2023/07/04 12:21:33;;;;;;;8.07;6.18;;;24.10;99.90;;;;;;4980469;28;20094;-92
2023/07/04 12:24:05;;;;;;;8.10;4.50;;;24.00;99.90;;;;;;4978729;28;20113;-92
2023/07/04 12:26:32;;;;;;;7.70;5.00;;;23.90;99.90;;;;;;4973971;28;20091;-93
2023/07/04 12:29:02;;;;;;;10.55;5.55;;;23.80;99.90;;;;;;4990876;28;20026;-92
2023/07/04 12:31:28;;;;;;;7.63;5.53;;;23.90;99.90;;;;;;4990509;28;20027;-92
2023/07/04 12:33:54;;;;;;;7.05;5.03;;;24.00;99.90;;;;;;4990108;28;20033;-92
2023/07/04 12:36:27;;;;;;;7.75;5.60;;;24.10;99.90;;;;;;4990690;28;20109;-93
2023/07/04 12:38:56;;;;;;;9.73;6.15;;;24.20;99.90;;;;;;4990166;28;20141;-92
2023/07/04 12:41:26;;;;;;;8.40;5.93;;;24.30;99.90;;;;;;4998261;28;20034;-93
2023/07/04 12:44:00;;;;;;;14.07;6.90;;;24.20;99.90;;;;;;4977510;28;20120;-92
2023/07/04 12:46:29;;;;;;;10.10;6.20;;;24.20;99.90;;;;;;4979763;28;20402;-92
2023/07/04 12:48:56;;;;;;;8.15;6.25;;;24.10;99.90;;;;;;4976544;28;20827;-92
2023/07/04 12:51:30;;;;;;;11.20;4.93;;;24.10;99.90;;;;;;4976807;28;20036;-94